KHRO/HRO METAR and TAF weather

Enter ICAO airport designator
Station Type Date Time Source
KHRO METAR 2020/07/08 22:53 UTC NOAA

KHRO 082253Z AUTO 12006KT 10SM CLR 31/21 A2991 RMK AO2 SLP111 T03060211


Station Type Date Time Source
KHRO Decoded METAR 2020/07/08 22:53 UTC NOAA

HARRISON BOONE COUNTY AIRPORT , AR, United States (KHRO) 36-16N 093-09W 417M
Jul 08, 2020 - 06:53 PM EDT / 2020.07.08 2253 UTC
Wind: from the ESE (120 degrees) at 7 MPH (6 KT):0
Visibility: 10 mile(s):0
Sky conditions: clear
Temperature: 87.1 F (30.6 C)
Dew Point: 70.0 F (21.1 C)
Relative Humidity: 56%
Pressure (altimeter): 29.91 in. Hg (1012 hPa)
ob: KHRO 082253Z AUTO 12006KT 10SM CLR 31/21 A2991 RMK AO2 SLP111 T03060211
cycle: 23

Station Type Date Time Source
KHRO TAF 2020/07/08 18:30 UTC NOAA

TAF KHRO 081726Z 0818/0918 14007KT P6SM SCT030
TEMPO 0818/0820 BKN030
FM082000 14007KT P6SM VCSH SCT040 BKN250
FM090200 14004KT P6SM BKN250
FM091000 VRB02KT 3SM BR FEW250
FM091400 16005KT P6SM SCT250

Example: see airport list